Time,TemperatureF,DewpointF,PressureIn,WindDirection,WindDirectionDegrees,WindSpeedMPH,WindSpeedGustMPH,Humidity,HourlyPrecipIn,Conditions,Clouds,dailyrainin,SoftwareType,DateUTC
2013-11-12 00:05:00,22.0,18.5,30.54,NW,317,0.0,0.0,86,0.00,,,0.00,Wunderground v.1.15,2013-11-12 06:05:00,
2013-11-12 00:10:00,22.1,18.6,30.55,NW,317,0.0,0.0,86,0.00,,,0.00,Wunderground v.1.15,2013-11-12 06:10:00,
2013-11-12 00:15:00,22.3,18.5,30.55,NW,317,0.0,0.0,85,0.00,,,0.00,Wunderground v.1.15,2013-11-12 06:15:00,
2013-11-12 00:20:00,22.5,18.4,30.55,NW,317,0.0,0.0,84,0.00,,,0.00,Wunderground v.1.15,2013-11-12 06:20:00,
2013-11-12 00:25:00,22.5,18.4,30.55,NW,317,0.0,0.0,84,0.00,,,0.00,Wunderground v.1.15,2013-11-12 06:25:00,
2013-11-12 00:30:00,22.4,18.3,30.55,NW,317,0.0,0.0,84,0.00,,,0.00,Wunderground v.1.15,2013-11-12 06:30:00,
2013-11-12 00:40:00,22.4,18.3,30.55,NW,317,0.0,0.0,84,0.00,,,0.00,Wunderground v.1.15,2013-11-12 06:40:00,
2013-11-12 00:50:00,22.5,18.1,30.55,NW,317,0.0,0.0,83,0.00,,,0.00,Wunderground v.1.15,2013-11-12 06:50:00,
2013-11-12 00:55:00,22.5,17.8,30.55,NW,317,0.0,0.0,82,0.00,,,0.00,Wunderground v.1.15,2013-11-12 06:55:00,
2013-11-12 01:00:00,22.6,17.9,30.55,NW,317,0.0,0.0,82,0.00,,,0.00,Wunderground v.1.15,2013-11-12 07:00:00,
2013-11-12 01:10:00,22.8,17.8,30.55,NW,317,0.0,0.0,81,0.00,,,0.00,Wunderground v.1.15,2013-11-12 07:10:00,
2013-11-12 01:20:00,23.0,17.5,30.56,NW,317,0.0,0.0,79,0.00,,,0.00,Wunderground v.1.15,2013-11-12 07:20:00,
2013-11-12 01:30:00,23.0,17.7,30.56,NW,317,0.0,0.0,80,0.00,,,0.00,Wunderground v.1.15,2013-11-12 07:30:00,
2013-11-12 01:40:00,22.7,17.5,30.56,NW,317,0.0,0.0,80,0.00,,,0.00,Wunderground v.1.15,2013-11-12 07:40:00,
2013-11-12 01:50:00,22.4,17.2,30.57,NW,317,0.0,0.0,80,0.00,,,0.00,Wunderground v.1.15,2013-11-12 07:50:00,
2013-11-12 01:55:00,22.1,16.9,30.57,NW,317,0.0,0.0,80,0.00,,,0.00,Wunderground v.1.15,2013-11-12 07:55:00,
2013-11-12 02:00:00,21.9,17.0,30.57,NW,317,0.0,0.0,81,0.00,,,0.00,Wunderground v.1.15,2013-11-12 08:00:00,
2013-11-12 02:10:00,21.5,16.6,30.57,NW,317,0.0,0.0,81,0.00,,,0.00,Wunderground v.1.15,2013-11-12 08:10:00,
2013-11-12 02:20:00,21.3,16.7,30.58,NW,317,0.0,0.0,82,0.00,,,0.00,Wunderground v.1.15,2013-11-12 08:20:00,
2013-11-12 02:25:00,21.3,16.9,30.58,NW,317,0.0,0.0,83,0.00,,,0.00,Wunderground v.1.15,2013-11-12 08:25:00,
2013-11-12 02:30:00,21.5,17.4,30.58,NW,317,0.0,0.0,84,0.00,,,0.00,Wunderground v.1.15,2013-11-12 08:30:00,
2013-11-12 02:40:00,21.9,17.8,30.58,NW,317,0.0,0.0,84,0.00,,,0.00,Wunderground v.1.15,2013-11-12 08:40:00,
2013-11-12 02:50:00,22.1,18.0,30.59,NW,317,0.0,0.0,84,0.00,,,0.00,Wunderground v.1.15,2013-11-12 08:50:00,
2013-11-12 02:55:00,22.2,18.1,30.59,NW,317,0.0,1.0,84,0.00,,,0.00,Wunderground v.1.15,2013-11-12 08:55:00,
2013-11-12 03:05:00,22.5,18.4,30.59,NW,317,0.0,0.0,84,0.00,,,0.00,Wunderground v.1.15,2013-11-12 09:05:00,
2013-11-12 03:10:00,22.6,18.5,30.59,NW,317,0.0,0.0,84,0.00,,,0.00,Wunderground v.1.15,2013-11-12 09:10:00,
2013-11-12 03:20:00,22.6,18.5,30.60,NW,317,0.0,0.0,84,0.00,,,0.00,Wunderground v.1.15,2013-11-12 09:20:00,
2013-11-12 03:25:00,22.6,18.5,30.60,NW,317,0.0,0.0,84,0.00,,,0.00,Wunderground v.1.15,2013-11-12 09:25:00,
2013-11-12 03:30:00,22.6,18.5,30.60,NW,317,0.0,0.0,84,0.00,,,0.00,Wunderground v.1.15,2013-11-12 09:30:00,
2013-11-12 03:40:00,22.4,18.3,30.60,NW,317,0.0,0.0,84,0.00,,,0.00,Wunderground v.1.15,2013-11-12 09:40:00,
2013-11-12 03:50:00,22.2,18.1,30.61,NW,317,0.0,0.0,84,0.00,,,0.00,Wunderground v.1.15,2013-11-12 09:50:00,
2013-11-12 03:55:00,22.1,18.0,30.61,NW,317,0.0,0.0,84,0.00,,,0.00,Wunderground v.1.15,2013-11-12 09:55:00,
2013-11-12 04:00:00,22.1,18.3,30.61,NW,317,0.0,0.0,85,0.00,,,0.00,Wunderground v.1.15,2013-11-12 10:00:00,
2013-11-12 04:10:00,21.8,17.7,30.61,NW,317,0.0,0.0,84,0.00,,,0.00,Wunderground v.1.15,2013-11-12 10:10:00,
2013-11-12 04:20:00,21.7,17.9,30.62,NW,317,0.0,0.0,85,0.00,,,0.00,Wunderground v.1.15,2013-11-12 10:20:00,
2013-11-12 04:25:00,21.7,17.9,30.63,NW,317,0.0,0.0,85,0.00,,,0.00,Wunderground v.1.15,2013-11-12 10:25:00,
2013-11-12 04:35:00,21.6,17.8,30.63,NW,317,0.0,0.0,85,0.00,,,0.00,Wunderground v.1.15,2013-11-12 10:35:00,
2013-11-12 04:40:00,21.6,17.8,30.64,NW,317,0.0,0.0,85,0.00,,,0.00,Wunderground v.1.15,2013-11-12 10:40:00,
2013-11-12 04:50:00,21.6,17.8,30.64,NW,317,0.0,0.0,85,0.00,,,0.00,Wunderground v.1.15,2013-11-12 10:50:00,
2013-11-12 05:00:00,21.6,17.8,30.64,NW,317,0.0,0.0,85,0.00,,,0.00,Wunderground v.1.15,2013-11-12 11:00:00,
2013-11-12 05:10:00,21.4,17.6,30.65,NW,317,0.0,0.0,85,0.00,,,0.00,Wunderground v.1.15,2013-11-12 11:10:00,
2013-11-12 05:20:00,21.1,17.6,30.65,NW,317,0.0,0.0,86,0.00,,,0.00,Wunderground v.1.15,2013-11-12 11:20:00,
2013-11-12 05:25:00,21.0,17.5,30.65,NW,317,0.0,0.0,86,0.00,,,0.00,Wunderground v.1.15,2013-11-12 11:25:00,
2013-11-12 05:30:00,21.0,17.5,30.66,NW,317,0.0,0.0,86,0.00,,,0.00,Wunderground v.1.15,2013-11-12 11:30:00,
2013-11-12 05:40:00,21.0,17.5,30.66,NW,317,0.0,0.0,86,0.00,,,0.00,Wunderground v.1.15,2013-11-12 11:40:00,
2013-11-12 05:50:00,20.8,17.3,30.66,NW,317,0.0,0.0,86,0.00,,,0.00,Wunderground v.1.15,2013-11-12 11:50:00,
2013-11-12 05:55:00,20.8,17.3,30.66,NW,317,0.0,0.0,86,0.00,,,0.00,Wunderground v.1.15,2013-11-12 11:55:00,
2013-11-12 06:05:00,20.6,17.1,30.66,NW,317,0.0,0.0,86,0.00,,,0.00,Wunderground v.1.15,2013-11-12 12:05:00,
2013-11-12 06:10:00,20.6,17.1,30.67,NW,317,0.0,0.0,86,0.00,,,0.00,Wunderground v.1.15,2013-11-12 12:10:00,
2013-11-12 06:20:00,20.4,17.1,30.67,NW,317,0.0,0.0,87,0.00,,,0.00,Wunderground v.1.15,2013-11-12 12:20:00,
2013-11-12 06:25:00,20.3,17.0,30.67,NW,317,0.0,0.0,87,0.00,,,0.00,Wunderground v.1.15,2013-11-12 12:25:00,
2013-11-12 06:30:00,20.2,17.0,30.67,NW,317,0.0,0.0,87,0.00,,,0.00,Wunderground v.1.15,2013-11-12 12:30:00,
2013-11-12 06:40:00,20.1,16.6,30.68,NW,317,0.0,0.0,86,0.00,,,0.00,Wunderground v.1.15,2013-11-12 12:40:00,
2013-11-12 06:50:00,20.0,16.8,30.68,NW,317,0.0,0.0,87,0.00,,,0.00,Wunderground v.1.15,2013-11-12 12:50:00,
2013-11-12 06:55:00,20.0,16.8,30.69,NW,317,0.0,0.0,87,0.00,,,0.00,Wunderground v.1.15,2013-11-12 12:55:00,
2013-11-12 07:05:00,19.8,16.3,30.69,NW,317,0.0,0.0,86,0.00,,,0.00,Wunderground v.1.15,2013-11-12 13:05:00,
2013-11-12 07:10:00,19.8,16.6,30.69,NW,317,0.0,0.0,87,0.00,,,0.00,Wunderground v.1.15,2013-11-12 13:10:00,
2013-11-12 07:20:00,19.7,16.5,30.69,NW,317,0.0,0.0,87,0.00,,,0.00,Wunderground v.1.15,2013-11-12 13:20:00,
2013-11-12 07:25:00,19.8,16.8,30.70,NW,317,0.0,0.0,88,0.00,,,0.00,Wunderground v.1.15,2013-11-12 13:25:00,
2013-11-12 07:30:00,19.9,16.9,30.70,NW,317,0.0,0.0,88,0.00,,,0.00,Wunderground v.1.15,2013-11-12 13:30:00,
2013-11-12 07:40:00,20.2,17.2,30.71,NW,317,0.0,0.0,88,0.00,,,0.00,Wunderground v.1.15,2013-11-12 13:40:00,
2013-11-12 07:50:00,20.7,17.7,30.71,NW,317,0.0,0.0,88,0.00,,,0.00,Wunderground v.1.15,2013-11-12 13:50:00,
2013-11-12 07:55:00,21.0,17.7,30.71,NW,317,0.0,0.0,87,0.00,,,0.00,Wunderground v.1.15,2013-11-12 13:55:00,
2013-11-12 08:00:00,21.4,18.1,30.71,NW,317,0.0,0.0,87,0.00,,,0.00,Wunderground v.1.15,2013-11-12 14:00:00,
2013-11-12 08:10:00,22.0,18.2,30.71,NW,317,0.0,0.0,85,0.00,,,0.00,Wunderground v.1.15,2013-11-12 14:10:00,
2013-11-12 08:20:00,22.7,18.6,30.71,NW,317,0.0,0.0,84,0.00,,,0.00,Wunderground v.1.15,2013-11-12 14:20:00,
2013-11-12 08:30:00,23.1,19.0,30.71,NW,317,0.0,0.0,84,0.00,,,0.00,Wunderground v.1.15,2013-11-12 14:30:00,
2013-11-12 08:40:00,23.6,19.2,30.71,NW,317,0.0,0.0,83,0.00,,,0.00,Wunderground v.1.15,2013-11-12 14:40:00,
2013-11-12 08:50:00,24.1,19.4,30.71,NW,317,0.0,4.0,82,0.00,,,0.00,Wunderground v.1.15,2013-11-12 14:50:00,
2013-11-12 08:55:00,24.2,19.2,30.71,NW,317,0.0,4.0,81,0.00,,,0.00,Wunderground v.1.15,2013-11-12 14:55:00,
2013-11-12 09:00:00,24.3,19.3,30.71,NW,317,0.0,0.0,81,0.00,,,0.00,Wunderground v.1.15,2013-11-12 15:00:00,
2013-11-12 09:10:00,24.8,19.8,30.71,NW,317,0.0,0.0,81,0.00,,,0.00,Wunderground v.1.15,2013-11-12 15:10:00,
2013-11-12 09:20:00,24.9,19.6,30.71,NW,317,0.0,0.0,80,0.00,,,0.00,Wunderground v.1.15,2013-11-12 15:20:00,
2013-11-12 09:25:00,25.2,20.2,30.71,NW,317,0.0,0.0,81,0.00,,,0.00,Wunderground v.1.15,2013-11-12 15:25:00,
2013-11-12 09:30:00,25.5,20.5,30.71,NW,317,0.0,0.0,81,0.00,,,0.00,Wunderground v.1.15,2013-11-12 15:30:00,
2013-11-12 09:40:00,26.2,20.6,30.72,NW,317,0.0,0.0,79,0.00,,,0.00,Wunderground v.1.15,2013-11-12 15:40:00,
2013-11-12 09:50:00,26.5,20.6,30.71,NW,317,0.0,0.0,78,0.00,,,0.00,Wunderground v.1.15,2013-11-12 15:50:00,
2013-11-12 09:55:00,26.7,21.1,30.72,NW,317,0.0,0.0,79,0.00,,,0.00,Wunderground v.1.15,2013-11-12 15:55:00,
2013-11-12 10:05:00,26.8,20.9,30.72,NW,317,0.0,1.0,78,0.00,,,0.00,Wunderground v.1.15,2013-11-12 16:05:00,
2013-11-12 10:10:00,26.7,20.5,30.72,NW,317,0.0,0.0,77,0.00,,,0.00,Wunderground v.1.15,2013-11-12 16:10:00,
2013-11-12 10:20:00,27.1,21.5,30.72,NW,317,0.0,0.0,79,0.00,,,0.00,Wunderground v.1.15,2013-11-12 16:20:00,
2013-11-12 10:30:00,27.5,21.2,30.72,NW,317,0.0,0.0,77,0.00,,,0.00,Wunderground v.1.15,2013-11-12 16:30:00,
2013-11-12 10:40:00,27.6,20.7,30.72,NW,317,0.0,0.0,75,0.00,,,0.00,Wunderground v.1.15,2013-11-12 16:40:00,
2013-11-12 10:50:00,27.6,21.0,30.71,NW,317,0.0,0.0,76,0.00,,,0.00,Wunderground v.1.15,2013-11-12 16:50:00,
2013-11-12 10:55:00,27.8,20.6,30.71,NW,317,1.0,1.0,74,0.00,,,0.00,Wunderground v.1.15,2013-11-12 16:55:00,
2013-11-12 11:00:00,28.1,21.5,30.70,NW,317,1.0,1.0,76,0.00,,,0.00,Wunderground v.1.15,2013-11-12 17:00:00,
2013-11-12 11:10:00,28.5,20.6,30.70,NW,317,0.0,0.0,72,0.00,,,0.00,Wunderground v.1.15,2013-11-12 17:10:00,
2013-11-12 11:20:00,28.8,20.6,30.70,NW,317,0.0,0.0,71,0.00,,,0.00,Wunderground v.1.15,2013-11-12 17:20:00,
2013-11-12 11:25:00,29.1,21.2,30.70,NW,317,0.0,0.0,72,0.00,,,0.00,Wunderground v.1.15,2013-11-12 17:25:00,
2013-11-12 11:30:00,29.3,21.4,30.70,NW,317,0.0,0.0,72,0.00,,,0.00,Wunderground v.1.15,2013-11-12 17:30:00,
2013-11-12 11:40:00,29.4,20.8,30.69,NW,317,0.0,0.0,70,0.00,,,0.01,Wunderground v.1.15,2013-11-12 17:40:00,
2013-11-12 11:50:00,29.9,21.3,30.69,NW,317,0.0,0.0,70,0.00,,,0.01,Wunderground v.1.15,2013-11-12 17:50:00,
2013-11-12 12:00:00,30.3,21.7,30.68,NW,317,0.0,0.0,70,0.00,,,0.01,Wunderground v.1.15,2013-11-12 18:00:00,
2013-11-12 12:10:00,30.5,21.9,30.68,NW,317,0.0,0.0,70,0.00,,,0.01,Wunderground v.1.15,2013-11-12 18:10:00,
2013-11-12 12:20:00,30.3,20.3,30.68,NW,317,0.0,0.0,66,0.00,,,0.01,Wunderground v.1.15,2013-11-12 18:20:00,
2013-11-12 12:25:00,30.3,20.3,30.68,NW,317,0.0,0.0,66,0.00,,,0.01,Wunderground v.1.15,2013-11-12 18:25:00,
2013-11-12 12:30:00,30.3,20.3,30.68,NW,317,0.0,0.0,66,0.00,,,0.01,Wunderground v.1.15,2013-11-12 18:30:00,
2013-11-12 12:40:00,30.6,21.6,30.68,NW,317,0.0,0.0,69,0.00,,,0.01,Wunderground v.1.15,2013-11-12 18:40:00,
2013-11-12 12:50:00,30.9,21.6,30.68,NW,317,0.0,0.0,68,0.00,,,0.01,Wunderground v.1.15,2013-11-12 18:50:00,
2013-11-12 12:55:00,30.9,20.9,30.68,NW,317,0.0,0.0,66,0.00,,,0.01,Wunderground v.1.15,2013-11-12 18:55:00,
2013-11-12 13:00:00,31.2,21.5,30.67,NW,317,0.0,0.0,67,0.00,,,0.02,Wunderground v.1.15,2013-11-12 19:00:00,
2013-11-12 13:10:00,31.6,21.5,30.67,NNE,19,0.0,0.0,66,0.00,,,0.02,Wunderground v.1.15,2013-11-12 19:10:00,
2013-11-12 13:20:00,31.7,20.9,30.67,South,169,0.0,0.0,64,0.00,,,0.02,Wunderground v.1.15,2013-11-12 19:20:00,
2013-11-12 13:30:00,31.8,21.0,30.67,North,359,0.0,3.0,64,0.00,,,0.02,Wunderground v.1.15,2013-11-12 19:30:00,
2013-11-12 13:40:00,31.3,20.9,30.67,NNW,338,0.0,0.0,65,0.00,,,0.02,Wunderground v.1.15,2013-11-12 19:40:00,
2013-11-12 13:50:00,30.7,20.0,30.67,NNW,328,0.0,1.0,64,0.00,,,0.02,Wunderground v.1.15,2013-11-12 19:50:00,
2013-11-12 13:55:00,30.4,19.7,30.67,ENE,67,0.0,1.0,64,0.00,,,0.02,Wunderground v.1.15,2013-11-12 19:55:00,
2013-11-12 14:00:00,30.0,19.3,30.67,NNE,13,0.0,0.0,64,0.00,,,0.02,Wunderground v.1.15,2013-11-12 20:00:00,
2013-11-12 14:10:00,29.8,19.5,30.66,NNE,31,0.0,0.0,65,0.00,,,0.02,Wunderground v.1.15,2013-11-12 20:10:00,
2013-11-12 14:20:00,29.9,18.8,30.66,NNW,327,0.0,0.0,63,0.00,,,0.02,Wunderground v.1.15,2013-11-12 20:20:00,
2013-11-12 14:30:00,30.1,19.4,30.66,NNW,327,0.0,0.0,64,0.00,,,0.02,Wunderground v.1.15,2013-11-12 20:30:00,
2013-11-12 14:40:00,30.0,17.4,30.65,NNW,327,0.0,0.0,59,0.00,,,0.02,Wunderground v.1.15,2013-11-12 20:40:00,
2013-11-12 14:50:00,29.7,17.1,30.65,NNW,328,0.0,0.0,59,0.00,,,0.02,Wunderground v.1.15,2013-11-12 20:50:00,
2013-11-12 14:55:00,29.6,17.4,30.65,NNW,328,0.0,0.0,60,0.00,,,0.02,Wunderground v.1.15,2013-11-12 20:55:00,
2013-11-12 15:00:00,29.5,18.4,30.65,NNW,328,0.0,0.0,63,0.00,,,0.02,Wunderground v.1.15,2013-11-12 21:00:00,
2013-11-12 15:10:00,29.4,18.7,30.64,NNW,327,0.0,0.0,64,0.00,,,0.02,Wunderground v.1.15,2013-11-12 21:10:00,
2013-11-12 15:20:00,29.4,19.4,30.65,NNW,327,0.0,0.0,66,0.00,,,0.02,Wunderground v.1.15,2013-11-12 21:20:00,
2013-11-12 15:25:00,29.3,19.0,30.65,NNW,327,0.0,0.0,65,0.00,,,0.02,Wunderground v.1.15,2013-11-12 21:25:00,
2013-11-12 15:30:00,29.2,18.9,30.65,NNW,327,0.0,0.0,65,0.00,,,0.02,Wunderground v.1.15,2013-11-12 21:30:00,
2013-11-12 15:40:00,29.0,19.1,30.65,NNW,327,0.0,0.0,66,0.00,,,0.02,Wunderground v.1.15,2013-11-12 21:40:00,
2013-11-12 15:50:00,28.8,18.9,30.65,NNW,327,0.0,0.0,66,0.00,,,0.02,Wunderground v.1.15,2013-11-12 21:50:00,
2013-11-12 16:00:00,28.5,18.6,30.64,NNW,327,0.0,0.0,66,0.00,,,0.02,Wunderground v.1.15,2013-11-12 22:00:00,
2013-11-12 16:10:00,28.2,18.6,30.64,NNW,327,0.0,0.0,67,0.00,,,0.02,Wunderground v.1.15,2013-11-12 22:10:00,
2013-11-12 16:20:00,27.9,18.4,30.64,NNW,327,0.0,0.0,67,0.00,,,0.02,Wunderground v.1.15,2013-11-12 22:20:00,
2013-11-12 16:25:00,27.8,18.3,30.64,NNW,327,0.0,0.0,67,0.00,,,0.02,Wunderground v.1.15,2013-11-12 22:25:00,
2013-11-12 16:30:00,27.6,18.1,30.64,NNW,327,0.0,0.0,67,0.00,,,0.02,Wunderground v.1.15,2013-11-12 22:30:00,
2013-11-12 16:40:00,27.2,17.7,30.64,NNW,327,0.0,0.0,67,0.00,,,0.02,Wunderground v.1.15,2013-11-12 22:40:00,
2013-11-12 16:50:00,26.9,17.7,30.64,NNW,327,0.0,0.0,68,0.00,,,0.02,Wunderground v.1.15,2013-11-12 22:50:00,
2013-11-12 16:55:00,26.7,17.2,30.64,NNW,327,0.0,0.0,67,0.00,,,0.02,Wunderground v.1.15,2013-11-12 22:55:00,
2013-11-12 17:00:00,26.5,17.0,30.64,NNW,327,0.0,0.0,67,0.00,,,0.02,Wunderground v.1.15,2013-11-12 23:00:00,
2013-11-12 17:10:00,26.1,16.3,30.64,NNW,327,0.0,0.0,66,0.00,,,0.02,Wunderground v.1.15,2013-11-12 23:10:00,
2013-11-12 17:20:00,25.9,16.8,30.64,NNW,327,0.0,0.0,68,0.00,,,0.02,Wunderground v.1.15,2013-11-12 23:20:00,
2013-11-12 17:25:00,25.8,16.7,30.64,NNW,327,0.0,0.0,68,0.00,,,0.02,Wunderground v.1.15,2013-11-12 23:25:00,
2013-11-12 17:30:00,25.6,16.5,30.64,NNW,327,0.0,0.0,68,0.00,,,0.02,Wunderground v.1.15,2013-11-12 23:30:00,
2013-11-12 17:40:00,25.3,16.9,30.64,NNW,327,0.0,0.0,70,0.00,,,0.02,Wunderground v.1.15,2013-11-12 23:40:00,
2013-11-12 17:50:00,25.1,17.3,30.64,NNW,327,0.0,0.0,72,0.00,,,0.02,Wunderground v.1.15,2013-11-12 23:50:00,
2013-11-12 17:55:00,24.9,17.1,30.64,NNW,327,0.0,0.0,72,0.00,,,0.02,Wunderground v.1.15,2013-11-12 23:55:00,
2013-11-12 18:00:00,24.8,17.1,30.64,NNW,327,0.0,0.0,72,0.00,,,0.02,Wunderground v.1.15,2013-11-13 00:00:00,
2013-11-12 18:10:00,24.7,17.0,30.64,NNW,327,0.0,0.0,72,0.00,,,0.02,Wunderground v.1.15,2013-11-13 00:10:00,
2013-11-12 18:20:00,24.5,16.8,30.64,NNW,327,0.0,0.0,72,0.00,,,0.02,Wunderground v.1.15,2013-11-13 00:20:00,
2013-11-12 18:25:00,24.4,16.7,30.64,NNW,327,0.0,0.0,72,0.00,,,0.02,Wunderground v.1.15,2013-11-13 00:25:00,
2013-11-12 18:35:00,24.2,16.5,30.63,NNW,327,0.0,0.0,72,0.00,,,0.02,Wunderground v.1.15,2013-11-13 00:35:00,
2013-11-12 18:40:00,24.2,16.8,30.63,NNW,327,0.0,0.0,73,0.00,,,0.02,Wunderground v.1.15,2013-11-13 00:40:00,
2013-11-12 18:50:00,24.0,16.6,30.63,NNW,327,0.0,0.0,73,0.00,,,0.02,Wunderground v.1.15,2013-11-13 00:50:00,
2013-11-12 18:55:00,23.9,16.5,30.63,NNW,327,0.0,0.0,73,0.00,,,0.02,Wunderground v.1.15,2013-11-13 00:55:00,
2013-11-12 19:00:00,23.8,16.4,30.63,NNW,327,0.0,0.0,73,0.00,,,0.02,Wunderground v.1.15,2013-11-13 01:00:00,
2013-11-12 19:10:00,23.7,16.3,30.62,NNW,327,0.0,0.0,73,0.00,,,0.02,Wunderground v.1.15,2013-11-13 01:10:00,
2013-11-12 19:20:00,23.5,16.1,30.62,NNW,327,0.0,0.0,73,0.00,,,0.02,Wunderground v.1.15,2013-11-13 01:20:00,
2013-11-12 19:25:00,23.3,15.9,30.62,NNW,327,0.0,0.0,73,0.00,,,0.02,Wunderground v.1.15,2013-11-13 01:25:00,
2013-11-12 19:30:00,23.3,16.2,30.62,NNW,327,0.0,0.0,74,0.00,,,0.02,Wunderground v.1.15,2013-11-13 01:30:00,
2013-11-12 19:40:00,23.0,15.6,30.61,NNW,327,0.0,0.0,73,0.00,,,0.02,Wunderground v.1.15,2013-11-13 01:40:00,
2013-11-12 19:50:00,22.7,15.3,30.61,NNW,327,0.0,0.0,73,0.00,,,0.02,Wunderground v.1.15,2013-11-13 01:50:00,
2013-11-12 19:55:00,22.6,15.6,30.61,NNW,327,0.0,0.0,74,0.00,,,0.02,Wunderground v.1.15,2013-11-13 01:55:00,
2013-11-12 20:05:00,22.4,15.4,30.62,NNW,327,0.0,0.0,74,0.00,,,0.02,Wunderground v.1.15,2013-11-13 02:05:00,
2013-11-12 20:10:00,22.3,15.6,30.62,NNW,327,0.0,0.0,75,0.00,,,0.02,Wunderground v.1.15,2013-11-13 02:10:00,
2013-11-12 20:20:00,22.2,15.5,30.62,NNW,327,0.0,0.0,75,0.00,,,0.02,Wunderground v.1.15,2013-11-13 02:20:00,
2013-11-12 20:25:00,22.2,15.8,30.62,NNW,327,0.0,0.0,76,0.00,,,0.02,Wunderground v.1.15,2013-11-13 02:25:00,
2013-11-12 20:30:00,22.2,16.1,30.62,NNW,327,0.0,0.0,77,0.00,,,0.02,Wunderground v.1.15,2013-11-13 02:30:00,
2013-11-12 20:40:00,22.2,16.4,30.62,NNW,327,0.0,0.0,78,0.00,,,0.02,Wunderground v.1.15,2013-11-13 02:40:00,
2013-11-12 20:50:00,22.2,16.7,30.62,NNW,327,0.0,0.0,79,0.00,,,0.02,Wunderground v.1.15,2013-11-13 02:50:00,
2013-11-12 20:55:00,22.2,16.7,30.62,NNW,327,0.0,0.0,79,0.00,,,0.02,Wunderground v.1.15,2013-11-13 02:55:00,
2013-11-12 21:00:00,22.1,16.6,30.62,NNW,327,0.0,0.0,79,0.00,,,0.02,Wunderground v.1.15,2013-11-13 03:00:00,
2013-11-12 21:10:00,22.0,16.8,30.62,NNW,327,0.0,0.0,80,0.00,,,0.02,Wunderground v.1.15,2013-11-13 03:10:00,
2013-11-12 21:20:00,21.9,16.7,30.62,NNW,327,0.0,0.0,80,0.00,,,0.02,Wunderground v.1.15,2013-11-13 03:20:00,
2013-11-12 21:25:00,21.8,16.6,30.62,NNW,327,0.0,0.0,80,0.00,,,0.02,Wunderground v.1.15,2013-11-13 03:25:00,
2013-11-12 21:35:00,21.8,16.9,30.61,NNW,327,0.0,0.0,81,0.00,,,0.02,Wunderground v.1.15,2013-11-13 03:35:00,
2013-11-12 21:40:00,21.8,16.9,30.61,NNW,327,0.0,0.0,81,0.00,,,0.02,Wunderground v.1.15,2013-11-13 03:40:00,
2013-11-12 21:50:00,21.8,16.6,30.61,NNW,327,0.0,0.0,80,0.00,,,0.02,Wunderground v.1.15,2013-11-13 03:50:00,
2013-11-12 21:55:00,21.7,16.5,30.60,NNW,327,0.0,0.0,80,0.00,,,0.02,Wunderground v.1.15,2013-11-13 03:55:00,
2013-11-12 22:00:00,21.6,16.4,30.60,NNW,327,0.0,0.0,80,0.00,,,0.02,Wunderground v.1.15,2013-11-13 04:00:00,
2013-11-12 22:10:00,21.5,16.6,30.60,NNW,327,0.0,0.0,81,0.00,,,0.02,Wunderground v.1.15,2013-11-13 04:10:00,
2013-11-12 22:20:00,21.3,16.4,30.60,NNW,327,0.0,0.0,81,0.00,,,0.02,Wunderground v.1.15,2013-11-13 04:20:00,
2013-11-12 22:25:00,21.3,16.4,30.60,NNW,327,0.0,0.0,81,0.00,,,0.02,Wunderground v.1.15,2013-11-13 04:25:00,
2013-11-12 22:30:00,21.2,16.6,30.60,NNW,327,0.0,0.0,82,0.00,,,0.02,Wunderground v.1.15,2013-11-13 04:30:00,
2013-11-12 22:40:00,21.1,16.5,30.59,NNW,327,0.0,0.0,82,0.00,,,0.02,Wunderground v.1.15,2013-11-13 04:40:00,
2013-11-12 22:50:00,20.9,16.3,30.59,NNW,327,0.0,0.0,82,0.00,,,0.02,Wunderground v.1.15,2013-11-13 04:50:00,
2013-11-12 23:00:00,20.8,16.2,30.59,NNW,327,0.0,0.0,82,0.00,,,0.02,Wunderground v.1.15,2013-11-13 05:00:00,
2013-11-12 23:05:00,20.7,16.4,30.59,NNW,327,0.0,0.0,83,0.00,,,0.02,Wunderground v.1.15,2013-11-13 05:05:00,
2013-11-12 23:10:00,20.6,16.3,30.59,NNW,327,0.0,0.0,83,0.00,,,0.02,Wunderground v.1.15,2013-11-13 05:10:00,
2013-11-12 23:15:00,20.6,16.3,30.59,NNW,327,0.0,0.0,83,0.00,,,0.02,Wunderground v.1.15,2013-11-13 05:15:00,
2013-11-12 23:20:00,20.5,16.2,30.59,NNW,327,0.0,0.0,83,0.00,,,0.02,Wunderground v.1.15,2013-11-13 05:20:00,
2013-11-12 23:25:00,20.5,16.2,30.59,NNW,327,0.0,0.0,83,0.00,,,0.02,Wunderground v.1.15,2013-11-13 05:25:00,
2013-11-12 23:30:00,20.5,16.4,30.58,NNW,327,0.0,0.0,84,0.00,,,0.02,Wunderground v.1.15,2013-11-13 05:30:00,
2013-11-12 23:40:00,20.4,16.3,30.58,NNW,327,0.0,0.0,84,0.00,,,0.02,Wunderground v.1.15,2013-11-13 05:40:00,
2013-11-12 23:50:00,20.3,16.2,30.58,NNW,327,0.0,0.0,84,0.00,,,0.02,Wunderground v.1.15,2013-11-13 05:50:00,
2013-11-12 23:55:00,20.3,16.2,30.58,NNW,327,0.0,0.0,84,0.00,,,0.02,Wunderground v.1.15,2013-11-13 05:55:00,